De Peel Air Base

EHDP · Limburg, 荷兰

罗盘
风向 的 风向 的 风向 到 风向 290° De Peel Air Base 6/24
风: 4 kt, 2 beaufort

3 kt

3 kt
改变
0 ft 2.000 4.000 6.000 8.000 10.000
Cloud Cloud
FEW 3.200
Cloud Cloud Cloud Cloud
SCT 5.400
Cloud Cloud Cloud Cloud Cloud Cloud Cloud Cloud
OVC 6.800
METAR EHVK 242225Z AUTO 29004KT 250V320 9999 FEW032 SCT054 OVC068 05/03 Q1008 BLU

METAR De Peel Air Base - EHDP

De Peel Air Base是,荷兰中的小机场。 该机场位于纬度51,51730和经度5,85572。 该机场有一条跑道: 6/24. 本场的ICAO机场代码为EHDP。 机场在Amsterdam FIR中。

该航空气象观测是针对Volkel Air Base在2024年4月25日 00:25, 当地时间进行的。

机场观察

风向为290°,速度为4 kt。 风向在250°和320°之间变化。

可见度为10 km 或者更多。

有几云在3.200 ft的高度, 疏云,零星散落的云朵在5.400 ft的高度 和 乌云密布在6.800 ft的高度。 破损或更高的上限为6.800 ft。

温度为5 °C,阵风为2 °C。 露点为3 °C,相对湿度为87%。 海平面上的气压为1008 hPa (QNH)。

白天

今天,太阳从06:20升起,在20:48降落。 这适用于De Peel Air Base,世界夏令时可能有所不同。 当地时间与世界标准时间之间的时差为+2 小时。 夏令时目前正在进行中。

公司介绍

我们没有关于这个机场的公司信息。

体会

到Vliegles.nl去找飞行课程,跳伞和其他飞行体验。 浏览页面,了解De Peel Air Base附近所有可用的活动。 你也可以使用搜索功能来寻找你所在地附近的特定飞行课程、跳伞或其他飞行体验。

跑道

Id 标题 侧风 逆风 侧风 %
6/24 060°-240° 3 kt 3 kt 77 %

逆风成分最大的方向会被突出显示,并用于横风计算。 这并不一定意味着这个方向在使用。

乌云

3.200 ft FEW 几云
5.400 ft SCT 疏云,零星散落的云朵
6.800 ft OVC 乌云密布

温度 & 天气

温度 5 °C
露点 3 °C
相对湿度 87%
风寒 2 °C
Kp-index 0 (0-9)

白天

日出
06:20 (5:41)
中午
13:35
日落
20:49

小工具

你想在你的网站上有一个关于De Peel Air Base的当前航空天气(METAR)的小部件吗?

显示HTML代码
报告变更